Kalamazoo, MI

1:24 AM EDT on April 28, 2015 (GMT -0400)
Milwood (The Best Nest) | | Change Station
CLOSE
Current Station
Personal Weather Station
Location: Kalamazoo, MI
Elevation: 850 ft
Nearby Weather Stations
Active Advisory: Frost Advisory

Elev 850 ft 42.26 °N, 85.56 °W | Updated 2 seconds ago

Clear
Clear
39.6 °F
Feels Like 40 °F
N
0.0
Wind Variable Wind from WSW
Gusts 0.0 mph

Today
High -- | Low -- °F
--% Chance of Precip.
Yesterday
High -- | Low -- °F
Precip. -- in
6:41 AM 8:37 PM
Waxing Gibbous, 71% visible
Pressure 30.12 in
Visibility 10.0 miles
Clouds Clear
Windchill 40 °F
Dew Point 37 °F
Humidity 89%
Rainfall 0.00 in
Snow Depth Not available.
UV 0.0 out of 12
Pollen 10.40 out of 12
Air Quality Not available.
Flu Activity Regional
METAR KAZO 280453Z AUTO 00000KT 10SM CLR 04/01 A3010 RMK AO2 SLP197 T00440006 401220022

More Conditions Fewer Conditions

Pressure 30.12 in
Visibility 10.0 miles
Clouds Clear
Windchill 40 °F
Dew Point 37 °F
Humidity 89%
Rainfall 0.00 in
Snow Depth Not available.
UV 0.0 out of 12
Pollen 10.40 out of 12
Air Quality Not available.
Flu Activity Regional
METAR KAZO 280453Z AUTO 00000KT 10SM CLR 04/01 A3010 RMK AO2 SLP197 T00440006 401220022

More Conditions Fewer Conditions

10-Day Weather Forecast

Almanac

Astronomy

Apr. 28, 2015 Rise Set
Actual Time
Civil Twilight
Nautical Twilight
Astronomical Twilight
Moon
Length of Visible Light
Length of Day
Tomorrow will be .
, % of the Moon is Illuminated

Today's Extremes

State Highs State Lows

Community

WunderPhotos

Upload Photos

1,817,584 photos uploaded!

WunderBlogs® & News

Nearby

Air Quality

  Air Quality AQ Index Pollutant
Not available.

Snow Depth

Station Depth Elevation

Earthquake Activity

City Distance Mag. Time & Date
Minimum magnitude displayed is 2.5.

Coastal Water Temperatures

Place Temperature

Stations

Nearby Weather Stations

Station Location Temp. Windchill Dew Point Humidity Wind Precip. Elev Updated Type
                   
Frost Advisory
Statement as of 9:00 PM EDT on April 27, 2015

... Frost advisory remains in effect from 2 am to 9 am EDT
Tuesday...

Hazardous weather...

* temperatures falling into the low to mid 30s overnight
   through early Tuesday morning.

* Frost formation likely during the early morning hours Tuesday.

Impacts...

* damage to unprotected tender vegetation possible.

Precautionary/preparedness actions...

* a frost advisory is issued when frost is expected to develop
   during the growing season. Those with agricultural interests
   in the advised area are advised to protect tender vegetation.
   Also... potted plants normally left outdoors should be
   covered or brought inside away from the cold.